createdAt,value
2022-12-08T00:00:22.982Z,6.22
2022-12-08T00:05:44.494Z,5.43
2022-12-08T00:10:49.453Z,7.63
2022-12-08T00:15:52.993Z,6.35
2022-12-08T00:20:57.760Z,3.22
2022-12-08T00:26:05.957Z,6.50
2022-12-08T00:31:11.134Z,5.78
2022-12-08T00:36:15.313Z,4.75
2022-12-08T00:41:41.565Z,4.28
2022-12-08T00:46:45.363Z,6.35
2022-12-08T00:51:48.647Z,6.10
2022-12-08T00:56:51.873Z,5.07
2022-12-08T01:01:55.835Z,5.03
2022-12-08T01:07:00.484Z,2.80
2022-12-08T01:12:03.665Z,3.88
2022-12-08T01:17:06.781Z,3.92
2022-12-08T01:22:09.946Z,6.13
2022-12-08T01:27:16.366Z,4.80
2022-12-08T01:32:19.392Z,6.78
2022-12-08T01:37:22.469Z,7.60
2022-12-08T01:42:26.023Z,6.35
2022-12-08T01:47:42.107Z,5.97
2022-12-08T01:52:56.583Z,7.30
2022-12-08T01:58:11.051Z,11.13
2022-12-08T02:03:20.413Z,8.95
2022-12-08T02:08:23.943Z,6.50
2022-12-08T02:13:28.236Z,6.97
2022-12-08T02:19:30.345Z,5.07
2022-12-08T02:24:56.700Z,8.60
2022-12-08T02:30:06.527Z,5.82
2022-12-08T02:35:32.119Z,5.80
2022-12-08T02:40:54.172Z,4.93
2022-12-08T02:51:07.096Z,9.75
2022-12-08T02:56:19.052Z,6.15
2022-12-08T03:01:50.240Z,6.13
2022-12-08T03:07:07.933Z,10.85
2022-12-08T03:12:18.959Z,9.05
2022-12-08T03:17:26.646Z,10.40
2022-12-08T03:22:30.123Z,8.05
2022-12-08T03:27:33.458Z,7.03
2022-12-08T03:32:48.063Z,9.80
2022-12-08T03:37:51.219Z,6.72
2022-12-08T03:42:54.210Z,10.02
2022-12-08T03:47:57.595Z,8.80
2022-12-08T03:53:00.581Z,9.48
2022-12-08T03:58:03.663Z,9.85
2022-12-08T04:03:07.064Z,12.15
2022-12-08T04:08:10.218Z,7.35
2022-12-08T04:13:13.367Z,5.45
2022-12-08T04:18:16.801Z,8.45
2022-12-08T04:23:20.050Z,6.45
2022-12-08T04:28:23.437Z,10.65
2022-12-08T04:33:26.921Z,8.85
2022-12-08T04:38:30.133Z,8.10
2022-12-08T04:43:33.445Z,11.20
2022-12-08T04:48:40.499Z,13.25
2022-12-08T04:53:46.659Z,21.83
2022-12-08T04:58:50.298Z,9.55
2022-12-08T05:03:53.437Z,13.25
2022-12-08T05:08:56.482Z,20.23
2022-12-08T05:13:59.583Z,12.25
2022-12-08T05:19:02.707Z,10.20
2022-12-08T05:24:06.153Z,14.93
2022-12-08T05:29:09.230Z,10.73
2022-12-08T05:34:12.508Z,11.43
2022-12-08T05:39:16.125Z,15.50
2022-12-08T05:44:19.189Z,11.43
2022-12-08T05:49:22.309Z,38.78
2022-12-08T05:54:25.626Z,11.80
2022-12-08T05:59:28.675Z,13.68
2022-12-08T06:04:31.732Z,13.32
2022-12-08T06:09:34.754Z,17.80
2022-12-08T06:14:41.104Z,13.38
2022-12-08T06:19:44.384Z,14.52
2022-12-08T06:24:47.420Z,19.52
2022-12-08T06:29:50.433Z,16.50
2022-12-08T06:34:53.752Z,20.50
2022-12-08T06:39:57.188Z,14.93
2022-12-08T06:45:00.939Z,10.88
2022-12-08T06:50:05.430Z,15.40
2022-12-08T06:55:10.145Z,9.95
2022-12-08T07:00:13.758Z,12.63
2022-12-08T07:05:17.018Z,13.23
2022-12-08T07:10:20.192Z,13.55
2022-12-08T07:15:23.345Z,11.48
2022-12-08T07:20:26.562Z,16.88
2022-12-08T07:25:29.697Z,12.77
2022-12-08T07:30:32.824Z,10.40
2022-12-08T07:35:36.294Z,17.65
2022-12-08T07:40:39.690Z,18.70
2022-12-08T07:45:43.065Z,14.43
2022-12-08T07:50:46.303Z,14.18
2022-12-08T07:55:49.428Z,12.23
2022-12-08T08:00:53.031Z,12.30
2022-12-08T08:05:56.155Z,18.58
2022-12-08T08:10:59.306Z,19.70
2022-12-08T08:16:07.357Z,16.42
2022-12-08T08:21:43.729Z,10.77
2022-12-08T08:26:37.511Z,11.45
2022-12-08T08:31:40.938Z,20.27
2022-12-08T08:36:45.768Z,12.00
2022-12-08T08:41:49.528Z,27.45
2022-12-08T08:46:52.883Z,13.90
2022-12-08T08:51:56.863Z,13.15
2022-12-08T08:57:00.938Z,16.23
2022-12-08T09:02:03.953Z,14.60
2022-12-08T09:07:07.814Z,21.90
2022-12-08T09:12:11.219Z,16.40
2022-12-08T09:17:15.161Z,21.73
2022-12-08T09:22:18.405Z,15.85
2022-12-08T09:27:22.294Z,20.95
2022-12-08T09:32:25.686Z,20.95
2022-12-08T09:37:31.419Z,20.45
2022-12-08T09:42:42.352Z,13.57
2022-12-08T09:47:48.280Z,15.27
2022-12-08T09:53:21.244Z,18.90
2022-12-08T09:58:32.627Z,10.82
2022-12-08T10:03:35.567Z,19.08
2022-12-08T10:08:48.878Z,17.98
2022-12-08T10:14:30.797Z,15.90
2022-12-08T10:19:36.053Z,16.90
2022-12-08T10:24:48.558Z,14.00
2022-12-08T10:29:52.855Z,18.38
2022-12-08T10:35:16.273Z,14.52
2022-12-08T10:40:19.551Z,13.43
2022-12-08T10:45:23.335Z,18.17
2022-12-08T10:50:32.491Z,22.45
2022-12-08T10:56:07.124Z,15.90
2022-12-08T11:01:29.245Z,14.00
2022-12-08T11:06:38.885Z,18.48
2022-12-08T11:11:53.607Z,35.35
2022-12-08T11:17:06.179Z,15.77
2022-12-08T11:22:31.163Z,9.98
2022-12-08T11:27:36.916Z,13.00
2022-12-08T11:32:45.141Z,38.13
2022-12-08T11:37:49.864Z,16.20
2022-12-08T11:43:25.627Z,20.40
2022-12-08T11:48:44.374Z,15.70
2022-12-08T11:54:18.188Z,16.42
2022-12-08T11:59:31.780Z,13.60
2022-12-08T12:04:41.168Z,26.73
2022-12-08T12:10:06.329Z,10.15
2022-12-08T12:15:15.831Z,13.88
2022-12-08T12:20:59.270Z,9.95
2022-12-08T12:26:06.824Z,19.83
2022-12-08T12:31:15.992Z,19.85
2022-12-08T12:36:19.333Z,13.23
2022-12-08T12:41:33.271Z,11.98
2022-12-08T12:46:36.582Z,16.58
2022-12-08T12:51:39.690Z,14.13
2022-12-08T12:56:50.823Z,13.68
2022-12-08T13:01:56.039Z,12.40
2022-12-08T13:07:00.016Z,17.42
2022-12-08T13:12:23.240Z,20.33
2022-12-08T13:17:32.685Z,15.85
2022-12-08T13:22:54.066Z,24.27
2022-12-08T13:27:57.163Z,23.40
2022-12-08T13:33:18.551Z,13.32
2022-12-08T13:38:26.715Z,21.52
2022-12-08T13:44:20.097Z,11.10
2022-12-08T13:55:25.917Z,13.57
2022-12-08T14:00:15.856Z,15.20
2022-12-08T14:05:40.585Z,7.32
2022-12-08T14:10:48.304Z,28.00
2022-12-08T14:15:51.492Z,20.17
2022-12-08T14:21:20.887Z,17.90
2022-12-08T14:26:24.642Z,15.45
2022-12-08T14:31:29.369Z,10.20
2022-12-08T14:36:33.928Z,11.52
2022-12-08T14:41:37.457Z,11.02
2022-12-08T14:47:05.810Z,17.02
2022-12-08T14:52:11.862Z,18.55
2022-12-08T14:57:15.836Z,12.68
2022-12-08T15:02:19.745Z,13.70
2022-12-08T15:07:32.162Z,14.15
2022-12-08T15:12:35.299Z,19.77
2022-12-08T15:17:50.480Z,14.82
2022-12-08T15:22:55.047Z,12.77
2022-12-08T15:27:58.341Z,14.60
2022-12-08T15:33:01.426Z,10.77
2022-12-08T15:38:05.623Z,14.88
2022-12-08T15:43:11.430Z,18.48
2022-12-08T15:48:23.143Z,12.40
2022-12-08T15:53:26.583Z,9.32
2022-12-08T15:58:52.922Z,13.88
2022-12-08T16:04:36.765Z,19.02
2022-12-08T16:09:19.827Z,13.00
2022-12-08T16:15:23.401Z,12.77
2022-12-08T16:19:46.365Z,13.73
2022-12-08T16:24:49.448Z,10.52
2022-12-08T16:29:52.547Z,9.27
2022-12-08T16:34:55.714Z,27.25
2022-12-08T16:40:00.515Z,11.88
2022-12-08T16:45:07.784Z,13.18
2022-12-08T16:50:21.212Z,18.45
2022-12-08T16:55:24.393Z,21.10
2022-12-08T17:00:29.818Z,12.73
2022-12-08T17:05:33.200Z,9.48
2022-12-08T17:10:39.656Z,9.75
2022-12-08T17:15:42.733Z,7.80
2022-12-08T17:20:45.911Z,6.72
2022-12-08T17:26:01.796Z,10.30
2022-12-08T17:31:17.942Z,6.60
2022-12-08T17:36:22.191Z,13.55
2022-12-08T17:41:25.346Z,8.68
2022-12-08T17:46:28.556Z,8.32
2022-12-08T17:51:31.726Z,11.25
2022-12-08T17:56:35.332Z,8.88
2022-12-08T18:01:38.845Z,8.68
2022-12-08T18:06:42.507Z,6.93
2022-12-08T18:11:46.571Z,6.22
2022-12-08T18:16:49.828Z,5.18
2022-12-08T18:21:53.095Z,7.07
2022-12-08T18:26:58.000Z,2.63
2022-12-08T18:32:01.238Z,8.65
2022-12-08T18:37:04.642Z,9.90
2022-12-08T18:42:23.170Z,5.03
2022-12-08T18:47:26.328Z,6.25
2022-12-08T18:52:32.224Z,2.13
2022-12-08T18:57:40.427Z,2.22
2022-12-08T19:02:43.835Z,4.30
2022-12-08T19:07:47.083Z,5.82
2022-12-08T19:12:51.553Z,4.45
2022-12-08T19:17:54.697Z,4.05
2022-12-08T19:22:57.828Z,5.18
2022-12-08T19:28:00.904Z,2.50
2022-12-08T19:33:04.015Z,3.05
2022-12-08T19:38:07.393Z,2.50
2022-12-08T19:43:35.626Z,4.90
2022-12-08T19:48:38.768Z,3.13
2022-12-08T19:53:47.398Z,3.47
2022-12-08T19:58:51.154Z,4.20
2022-12-08T20:03:54.189Z,3.53
2022-12-08T20:08:57.343Z,3.00
2022-12-08T20:14:00.449Z,3.58
2022-12-08T20:19:03.906Z,2.67
2022-12-08T20:24:07.705Z,2.92
2022-12-08T20:29:10.922Z,5.18
2022-12-08T20:34:15.922Z,3.08
2022-12-08T20:39:19.181Z,3.45
2022-12-08T20:44:22.445Z,3.50
2022-12-08T20:49:29.753Z,7.90
2022-12-08T20:54:37.638Z,2.53
2022-12-08T20:59:40.925Z,1.75
2022-12-08T21:04:44.258Z,3.60
2022-12-08T21:09:47.809Z,4.43
2022-12-08T21:14:51.151Z,4.50
2022-12-08T21:19:54.268Z,2.55
2022-12-08T21:24:57.324Z,2.15
2022-12-08T21:30:00.461Z,2.92
2022-12-08T21:35:03.691Z,5.00
2022-12-08T21:40:08.096Z,3.20
2022-12-08T21:45:16.900Z,2.30
2022-12-08T21:50:22.184Z,2.20
2022-12-08T21:55:25.408Z,2.85
2022-12-08T22:00:28.773Z,2.58
2022-12-08T22:05:32.794Z,4.05
2022-12-08T22:10:36.014Z,3.63
2022-12-08T22:15:39.280Z,4.43
2022-12-08T22:20:44.091Z,3.85
2022-12-08T22:25:58.392Z,4.18
2022-12-08T22:31:01.511Z,3.75
2022-12-08T22:36:10.743Z,3.28
2022-12-08T22:41:14.775Z,4.80
2022-12-08T22:46:24.454Z,3.00
2022-12-08T22:51:27.792Z,5.05
2022-12-08T22:56:31.109Z,2.85
2022-12-08T23:01:35.024Z,4.20
2022-12-08T23:06:38.213Z,3.92
2022-12-08T23:11:41.401Z,5.10
2022-12-08T23:16:45.084Z,5.07
2022-12-08T23:21:48.321Z,4.43
2022-12-08T23:26:51.492Z,7.00
2022-12-08T23:31:54.713Z,4.45
2022-12-08T23:36:58.089Z,2.67
2022-12-08T23:42:01.486Z,6.40
2022-12-08T23:47:04.889Z,6.43
2022-12-08T23:52:08.266Z,8.02
2022-12-08T23:57:11.678Z,7.50
